createdAt,value
2022-10-05T00:01:25.456Z,11.70
2022-10-05T00:03:59.205Z,11.74
2022-10-05T00:06:29.940Z,11.72
2022-10-05T00:08:56.657Z,11.71
2022-10-05T00:11:23.291Z,11.69
2022-10-05T00:13:49.871Z,11.72
2022-10-05T00:16:19.743Z,11.74
2022-10-05T00:18:49.962Z,11.69
2022-10-05T00:21:25.383Z,11.62
2022-10-05T00:23:54.097Z,11.63
2022-10-05T00:26:26.808Z,11.60
2022-10-05T00:28:54.821Z,11.67
2022-10-05T00:31:24.514Z,11.64
2022-10-05T00:33:51.894Z,11.61
2022-10-05T00:36:19.020Z,11.55
2022-10-05T00:38:45.692Z,11.51
2022-10-05T00:41:20.854Z,11.44
2022-10-05T00:44:12.336Z,11.28
2022-10-05T00:46:47.704Z,11.29
2022-10-05T00:49:33.068Z,11.25
2022-10-05T00:52:28.328Z,11.22
2022-10-05T00:55:13.340Z,11.09
2022-10-05T00:57:51.915Z,11.09
2022-10-05T01:00:24.170Z,11.07
2022-10-05T01:02:54.158Z,11.05
2022-10-05T01:05:32.522Z,11.01
2022-10-05T01:08:11.150Z,11.00
2022-10-05T01:11:29.984Z,10.84
2022-10-05T01:14:35.174Z,10.80
2022-10-05T01:17:20.474Z,10.74
2022-10-05T01:20:02.016Z,10.71
2022-10-05T01:22:57.414Z,10.69
2022-10-05T01:25:30.222Z,10.62
2022-10-05T01:28:08.592Z,10.58
2022-10-05T01:30:45.485Z,10.52
2022-10-05T01:33:21.353Z,10.44
2022-10-05T01:36:05.267Z,10.41
2022-10-05T01:38:53.294Z,10.37
2022-10-05T01:41:37.432Z,10.38
2022-10-05T01:44:11.258Z,10.38
2022-10-05T01:47:00.497Z,10.34
2022-10-05T01:49:37.878Z,10.29
2022-10-05T01:52:51.016Z,10.21
2022-10-05T01:55:38.592Z,10.19
2022-10-05T01:58:17.357Z,10.19
2022-10-05T02:00:59.910Z,10.17
2022-10-05T02:03:37.150Z,10.15
2022-10-05T02:06:13.404Z,10.12
2022-10-05T02:08:46.482Z,10.06
2022-10-05T02:11:17.081Z,10.04
2022-10-05T02:13:50.833Z,10.07
2022-10-05T02:16:25.515Z,10.17
2022-10-05T02:19:03.928Z,10.17
2022-10-05T02:21:33.664Z,10.15
2022-10-05T02:24:05.188Z,10.17
2022-10-05T02:26:33.520Z,10.23
2022-10-05T02:29:04.236Z,10.31
2022-10-05T02:31:46.032Z,10.28
2022-10-05T02:34:28.368Z,10.31
2022-10-05T02:37:13.708Z,10.43
2022-10-05T02:40:05.257Z,10.43
2022-10-05T02:43:00.024Z,10.36
2022-10-05T02:45:45.095Z,10.33
2022-10-05T02:48:29.060Z,10.29
2022-10-05T02:51:26.176Z,10.29
2022-10-05T02:54:21.089Z,10.25
2022-10-05T02:56:53.542Z,10.24
2022-10-05T02:59:38.739Z,10.23
2022-10-05T03:02:16.869Z,10.21
2022-10-05T03:04:52.316Z,10.22
2022-10-05T03:07:27.740Z,10.22
2022-10-05T03:10:02.694Z,10.22
2022-10-05T03:12:48.861Z,10.20
2022-10-05T03:15:36.967Z,10.18
2022-10-05T03:18:11.348Z,10.12
2022-10-05T03:20:44.190Z,10.13
2022-10-05T03:23:35.173Z,10.08
2022-10-05T03:26:18.114Z,10.06
2022-10-05T03:28:58.857Z,10.02
2022-10-05T03:31:51.635Z,10.03
2022-10-05T03:34:36.692Z,9.96
2022-10-05T03:37:03.211Z,9.92
2022-10-05T03:39:51.507Z,9.92
2022-10-05T03:42:28.372Z,9.92
2022-10-05T03:45:05.673Z,9.91
2022-10-05T03:48:01.275Z,9.87
2022-10-05T03:50:57.143Z,9.79
2022-10-05T03:53:29.984Z,9.80
2022-10-05T03:56:03.778Z,9.78
2022-10-05T03:58:37.659Z,9.78
2022-10-05T04:01:10.572Z,9.76
2022-10-05T04:03:46.192Z,9.72
2022-10-05T04:06:22.498Z,9.71
2022-10-05T04:08:49.017Z,9.70
2022-10-05T04:11:26.501Z,9.70
2022-10-05T04:14:01.266Z,9.69
2022-10-05T04:16:33.612Z,9.67
2022-10-05T04:19:09.768Z,9.73
2022-10-05T04:22:17.184Z,9.71
2022-10-05T04:24:52.867Z,9.65
2022-10-05T04:27:23.740Z,9.73
2022-10-05T04:29:53.350Z,9.73
2022-10-05T04:32:29.423Z,9.70
2022-10-05T04:35:14.345Z,9.68
2022-10-05T04:38:17.302Z,9.65
2022-10-05T04:41:08.877Z,9.60
2022-10-05T04:43:44.721Z,9.59
2022-10-05T04:46:51.112Z,9.62
2022-10-05T04:49:20.990Z,9.61
2022-10-05T04:52:12.257Z,9.61
2022-10-05T04:54:41.466Z,9.61
2022-10-05T04:57:15.368Z,9.61
2022-10-05T05:00:09.980Z,9.60
2022-10-05T05:02:59.502Z,9.55
2022-10-05T05:05:31.784Z,9.55
2022-10-05T05:08:25.944Z,9.54
2022-10-05T05:11:19.987Z,9.51
2022-10-05T05:14:03.717Z,9.55
2022-10-05T05:16:44.442Z,9.55
2022-10-05T05:19:14.245Z,9.50
2022-10-05T05:21:59.520Z,9.53
2022-10-05T05:24:35.613Z,9.53
2022-10-05T05:27:26.277Z,9.60
2022-10-05T05:30:17.486Z,9.60
2022-10-05T05:32:56.209Z,9.56
2022-10-05T05:35:41.002Z,9.56
2022-10-05T05:38:35.283Z,9.49
2022-10-05T05:41:13.029Z,9.50
2022-10-05T05:44:01.155Z,9.49
2022-10-05T05:47:01.896Z,9.45
2022-10-05T05:49:27.876Z,9.43
2022-10-05T05:52:18.432Z,9.45
2022-10-05T05:55:13.443Z,9.47
2022-10-05T05:58:09.550Z,9.50
2022-10-05T06:00:47.263Z,9.52
2022-10-05T06:03:24.784Z,9.55
2022-10-05T06:05:57.119Z,9.60
2022-10-05T06:08:23.680Z,9.58
2022-10-05T06:10:56.586Z,9.62
2022-10-05T06:13:35.204Z,9.71
2022-10-05T06:16:10.270Z,9.73
2022-10-05T06:18:41.337Z,9.74
2022-10-05T06:21:23.438Z,9.76
2022-10-05T06:24:21.119Z,9.78
2022-10-05T06:27:02.842Z,9.85
2022-10-05T06:29:53.493Z,9.96
2022-10-05T06:32:32.182Z,10.10
2022-10-05T06:35:22.712Z,10.10
2022-10-05T06:37:58.027Z,10.13
2022-10-05T06:40:39.237Z,10.20
2022-10-05T06:43:39.841Z,10.25
2022-10-05T06:46:26.209Z,10.33
2022-10-05T06:49:18.028Z,10.36
2022-10-05T06:52:10.854Z,10.39
2022-10-05T06:54:43.406Z,10.48
2022-10-05T06:57:30.142Z,10.69
2022-10-05T07:00:16.207Z,10.79
2022-10-05T07:03:01.577Z,10.91
2022-10-05T07:05:39.623Z,11.05
2022-10-05T07:08:06.131Z,11.18
2022-10-05T07:10:45.258Z,11.32
2022-10-05T07:13:41.325Z,11.54
2022-10-05T07:16:13.799Z,11.67
2022-10-05T07:18:59.370Z,11.84
2022-10-05T07:21:41.958Z,11.96
2022-10-05T07:24:31.698Z,11.92
2022-10-05T07:27:07.317Z,11.97
2022-10-05T07:29:59.131Z,12.06
2022-10-05T07:32:36.823Z,12.03
2022-10-05T07:35:47.021Z,12.03
2022-10-05T07:38:24.113Z,11.95
2022-10-05T07:41:06.725Z,11.87
2022-10-05T07:44:20.949Z,11.76
2022-10-05T07:46:58.659Z,11.71
2022-10-05T07:49:51.883Z,11.70
2022-10-05T07:52:38.132Z,11.72
2022-10-05T07:55:21.866Z,11.68
2022-10-05T07:57:54.066Z,11.62
2022-10-05T08:00:43.202Z,11.76
2022-10-05T08:03:20.265Z,11.88
2022-10-05T08:05:47.590Z,11.93
2022-10-05T08:08:38.291Z,11.84
2022-10-05T08:11:31.167Z,11.87
2022-10-05T08:14:09.008Z,11.87
2022-10-05T08:16:39.565Z,12.02
2022-10-05T08:19:15.311Z,11.97
2022-10-05T08:21:48.118Z,11.93
2022-10-05T08:24:29.719Z,12.15
2022-10-05T08:27:02.233Z,12.25
2022-10-05T08:29:50.696Z,12.15
2022-10-05T08:32:25.717Z,12.13
2022-10-05T08:35:01.589Z,12.16
2022-10-05T08:37:34.129Z,12.22
2022-10-05T08:40:18.896Z,12.39
2022-10-05T08:43:13.108Z,12.34
2022-10-05T08:45:54.805Z,12.32
2022-10-05T08:48:46.296Z,12.41
2022-10-05T08:51:33.067Z,12.27
2022-10-05T08:54:18.294Z,12.21
2022-10-05T08:57:08.113Z,12.26
2022-10-05T09:00:11.004Z,12.30
2022-10-05T09:03:11.691Z,12.24
2022-10-05T09:06:14.480Z,12.10
2022-10-05T09:09:19.872Z,12.12
2022-10-05T09:12:16.432Z,12.18
2022-10-05T09:15:24.429Z,12.13
2022-10-05T09:18:40.154Z,12.09
2022-10-05T09:21:21.901Z,12.16
2022-10-05T09:24:15.568Z,12.21
2022-10-05T09:27:14.961Z,12.21
2022-10-05T09:29:41.408Z,12.22
2022-10-05T09:32:29.715Z,12.41
2022-10-05T09:35:08.357Z,12.48
2022-10-05T09:37:35.084Z,12.55
2022-10-05T09:40:41.715Z,12.59
2022-10-05T09:43:17.502Z,12.66
2022-10-05T09:45:59.336Z,12.74
2022-10-05T09:48:26.053Z,12.80
2022-10-05T09:51:09.100Z,12.79
2022-10-05T09:54:07.386Z,12.89
2022-10-05T09:56:47.253Z,12.82
2022-10-05T09:59:19.726Z,13.00
2022-10-05T10:01:46.656Z,13.20
2022-10-05T10:04:25.684Z,13.16
2022-10-05T10:07:03.658Z,13.37
2022-10-05T10:09:52.078Z,13.31
2022-10-05T10:12:32.792Z,13.37
2022-10-05T10:15:38.462Z,13.58
2022-10-05T10:18:35.094Z,13.63
2022-10-05T10:21:39.594Z,13.84
2022-10-05T10:24:21.611Z,14.00
2022-10-05T10:27:07.047Z,14.00
2022-10-05T10:29:57.984Z,14.00
2022-10-05T10:32:45.994Z,14.11
2022-10-05T10:35:58.792Z,14.07
2022-10-05T10:38:41.599Z,14.28
2022-10-05T10:41:10.798Z,14.44
2022-10-05T10:43:58.973Z,14.55
2022-10-05T10:46:48.450Z,14.57
2022-10-05T10:49:52.289Z,14.68
2022-10-05T10:52:47.513Z,14.79
2022-10-05T10:55:38.672Z,14.73
2022-10-05T10:58:50.147Z,14.64
2022-10-05T11:01:16.759Z,14.69
2022-10-05T11:03:54.895Z,14.66
2022-10-05T11:06:33.568Z,14.77
2022-10-05T11:09:26.910Z,14.90
2022-10-05T11:12:34.543Z,15.17
2022-10-05T11:15:44.731Z,15.60
2022-10-05T11:18:23.695Z,15.68
2022-10-05T11:20:59.446Z,15.76
2022-10-05T11:23:45.067Z,15.72
2022-10-05T11:26:23.241Z,15.85
2022-10-05T11:29:20.736Z,15.83
2022-10-05T11:32:14.346Z,15.97
2022-10-05T11:35:05.639Z,15.96
2022-10-05T11:38:06.221Z,15.88
2022-10-05T11:41:10.045Z,15.92
2022-10-05T11:44:10.114Z,16.26
2022-10-05T11:46:39.728Z,16.48
2022-10-05T11:49:32.790Z,16.53
2022-10-05T11:52:13.096Z,16.69
2022-10-05T11:55:12.046Z,16.70
2022-10-05T11:57:53.909Z,16.67
2022-10-05T12:00:43.469Z,17.00
2022-10-05T12:03:27.093Z,17.23
2022-10-05T12:06:27.328Z,17.62
2022-10-05T12:09:08.018Z,17.72
2022-10-05T12:12:04.078Z,18.12
2022-10-05T12:14:33.597Z,18.32
2022-10-05T12:17:31.033Z,18.49
2022-10-05T12:20:21.901Z,18.69
2022-10-05T12:22:54.882Z,18.79
2022-10-05T12:25:31.769Z,18.52
2022-10-05T12:28:05.028Z,18.63
2022-10-05T12:31:09.288Z,18.91
2022-10-05T12:33:51.179Z,19.50
2022-10-05T12:36:35.959Z,19.48
2022-10-05T12:39:22.229Z,19.56
2022-10-05T12:44:42.706Z,19.88
2022-10-05T12:47:09.236Z,20.00
2022-10-05T12:50:08.098Z,19.86
2022-10-05T12:53:13.443Z,19.52
2022-10-05T12:56:04.438Z,19.86
2022-10-05T12:58:56.449Z,20.59
2022-10-05T13:01:41.566Z,20.52
2022-10-05T13:04:19.167Z,20.51
2022-10-05T13:07:07.502Z,20.49
2022-10-05T13:09:59.892Z,20.56
2022-10-05T13:12:42.606Z,20.32
2022-10-05T13:15:29.674Z,20.50
2022-10-05T13:18:08.365Z,20.38
2022-10-05T13:20:35.336Z,20.49
2022-10-05T13:23:12.864Z,20.44
2022-10-05T13:26:07.797Z,20.24
2022-10-05T13:28:41.630Z,21.19
2022-10-05T13:31:26.727Z,21.77
2022-10-05T13:34:19.549Z,21.45
2022-10-05T13:37:04.062Z,21.59
2022-10-05T13:39:56.861Z,21.36
2022-10-05T13:42:32.631Z,21.82
2022-10-05T13:45:32.425Z,21.49
2022-10-05T13:48:11.075Z,21.80
2022-10-05T13:51:01.874Z,21.76
2022-10-05T13:53:37.115Z,21.35
2022-10-05T13:56:09.371Z,21.20
2022-10-05T13:58:51.999Z,21.61
2022-10-05T14:01:26.605Z,21.88
2022-10-05T14:04:22.239Z,21.44
2022-10-05T14:06:49.260Z,21.31
2022-10-05T14:09:25.490Z,21.58
2022-10-05T14:12:14.363Z,21.73
2022-10-05T14:14:53.868Z,21.73
2022-10-05T14:17:40.400Z,21.51
2022-10-05T14:20:25.183Z,21.90
2022-10-05T14:22:58.473Z,21.93
2022-10-05T14:25:25.401Z,22.11
2022-10-05T14:28:11.844Z,21.87
2022-10-05T14:30:39.922Z,21.76
2022-10-05T14:33:14.141Z,21.37
2022-10-05T14:35:50.833Z,21.28
2022-10-05T14:38:22.583Z,21.29
2022-10-05T14:41:06.536Z,20.49
2022-10-05T14:43:34.300Z,20.75
2022-10-05T14:46:23.287Z,20.51
2022-10-05T14:49:23.657Z,20.65
2022-10-05T14:51:51.620Z,20.44
2022-10-05T14:54:36.585Z,20.47
2022-10-05T14:57:32.153Z,20.58
2022-10-05T15:00:12.416Z,20.21
2022-10-05T15:03:00.935Z,20.10
2022-10-05T15:05:38.575Z,20.18
2022-10-05T15:08:12.897Z,20.19
2022-10-05T15:10:51.148Z,20.01
2022-10-05T15:13:21.333Z,19.67
2022-10-05T15:16:03.345Z,19.77
2022-10-05T15:18:53.069Z,19.90
2022-10-05T15:21:42.343Z,19.64
2022-10-05T15:24:20.190Z,19.60
2022-10-05T15:26:56.122Z,19.45
2022-10-05T15:29:47.345Z,19.52
2022-10-05T15:32:42.778Z,19.45
2022-10-05T15:36:00.549Z,19.44
2022-10-05T15:38:33.326Z,19.47
2022-10-05T15:41:15.597Z,19.14
2022-10-05T15:44:19.099Z,19.06
2022-10-05T15:47:02.990Z,18.99
2022-10-05T15:49:43.384Z,18.88
2022-10-05T15:52:12.991Z,18.90
2022-10-05T15:55:16.958Z,18.81
2022-10-05T15:57:49.258Z,18.71
2022-10-05T16:00:23.039Z,18.69
2022-10-05T16:02:59.251Z,18.70
2022-10-05T16:05:56.762Z,18.59
2022-10-05T16:09:00.761Z,18.45
2022-10-05T16:11:39.215Z,18.42
2022-10-05T16:14:32.315Z,18.45
2022-10-05T16:17:07.921Z,18.32
2022-10-05T16:19:49.410Z,18.22
2022-10-05T16:22:27.909Z,18.12
2022-10-05T16:25:34.603Z,18.08
2022-10-05T16:28:11.686Z,18.02
2022-10-05T16:30:58.854Z,17.96
2022-10-05T16:33:33.937Z,17.94
2022-10-05T16:36:20.911Z,17.86
2022-10-05T16:39:33.297Z,17.70
2022-10-05T16:42:14.155Z,17.67
2022-10-05T16:45:18.346Z,17.50
2022-10-05T16:48:08.347Z,17.50
2022-10-05T16:51:01.450Z,17.45
2022-10-05T16:53:37.142Z,17.43
2022-10-05T16:56:11.166Z,17.44
2022-10-05T16:58:40.734Z,17.27
2022-10-05T17:01:29.616Z,17.16
2022-10-05T17:04:14.618Z,17.12
2022-10-05T17:06:59.375Z,17.04
2022-10-05T17:09:25.871Z,16.99
2022-10-05T17:12:04.341Z,16.96
2022-10-05T17:14:48.861Z,16.91
2022-10-05T17:17:17.274Z,16.91
2022-10-05T17:20:01.325Z,16.85
2022-10-05T17:22:30.846Z,16.79
2022-10-05T17:25:03.302Z,16.75
2022-10-05T17:27:51.007Z,16.70
2022-10-05T17:30:26.888Z,16.77
2022-10-05T17:32:59.834Z,16.73
2022-10-05T17:35:52.161Z,16.71
2022-10-05T17:38:23.230Z,16.72
2022-10-05T17:41:14.771Z,16.63
2022-10-05T17:43:42.548Z,16.63
2022-10-05T17:46:10.716Z,16.62
2022-10-05T17:48:43.242Z,16.61
2022-10-05T17:51:39.594Z,16.52
2022-10-05T17:55:03.352Z,16.43
2022-10-05T17:57:31.017Z,16.42
2022-10-05T18:00:01.919Z,16.43
2022-10-05T18:02:36.888Z,16.37
2022-10-05T18:05:06.722Z,16.33
2022-10-05T18:07:34.674Z,16.35
2022-10-05T18:10:11.679Z,16.32
2022-10-05T18:13:01.305Z,16.34
2022-10-05T18:15:27.893Z,16.32
2022-10-05T18:18:20.025Z,16.28
2022-10-05T18:21:09.206Z,16.17
2022-10-05T18:23:37.115Z,16.11
2022-10-05T18:26:20.512Z,16.18
2022-10-05T18:29:35.954Z,16.21
2022-10-05T18:32:12.585Z,16.14
2022-10-05T18:34:53.487Z,16.19
2022-10-05T18:37:57.254Z,16.16
2022-10-05T18:40:38.477Z,16.09
2022-10-05T18:43:43.968Z,16.06
2022-10-05T18:46:35.298Z,16.08
2022-10-05T18:49:10.575Z,16.10
2022-10-05T18:52:04.115Z,16.06
2022-10-05T18:54:55.896Z,15.97
2022-10-05T18:57:31.777Z,15.90
2022-10-05T19:00:07.693Z,15.93
2022-10-05T19:02:38.627Z,15.92
2022-10-05T19:05:47.041Z,15.96
2022-10-05T19:08:15.249Z,15.83
2022-10-05T19:10:41.827Z,15.75
2022-10-05T19:13:17.256Z,15.69
2022-10-05T19:15:55.916Z,15.68
2022-10-05T19:18:22.483Z,15.63
2022-10-05T19:21:08.713Z,15.68
2022-10-05T19:23:41.994Z,15.72
2022-10-05T19:26:26.883Z,15.70
2022-10-05T19:29:07.930Z,15.87
2022-10-05T19:31:49.308Z,15.89
2022-10-05T19:34:22.228Z,15.98
2022-10-05T19:37:09.179Z,15.95
2022-10-05T19:39:54.366Z,16.01
2022-10-05T19:42:57.805Z,16.13
2022-10-05T19:45:26.683Z,16.11
2022-10-05T19:48:02.137Z,16.08
2022-10-05T19:50:34.577Z,16.06
2022-10-05T19:53:17.162Z,16.06
2022-10-05T19:55:47.153Z,16.07
2022-10-05T19:58:21.354Z,16.09
2022-10-05T20:00:55.073Z,16.19
2022-10-05T20:03:27.662Z,16.28
2022-10-05T20:06:03.018Z,16.34
2022-10-05T20:08:50.180Z,16.41
2022-10-05T20:11:18.108Z,16.41
2022-10-05T20:13:53.621Z,16.35
2022-10-05T20:16:46.869Z,16.34
2022-10-05T20:19:50.149Z,16.34
2022-10-05T20:22:39.595Z,16.35
2022-10-05T20:25:30.766Z,16.40
2022-10-05T20:27:58.033Z,16.48
2022-10-05T20:30:29.162Z,16.49
2022-10-05T20:33:00.743Z,16.48
2022-10-05T20:35:30.813Z,16.50
2022-10-05T20:38:00.210Z,16.50
2022-10-05T20:40:29.122Z,16.48
2022-10-05T20:42:56.767Z,16.50
2022-10-05T20:45:23.611Z,16.66
2022-10-05T20:47:50.782Z,16.62
2022-10-05T20:50:17.556Z,16.66
2022-10-05T20:52:44.168Z,16.65
2022-10-05T20:55:11.427Z,16.68
2022-10-05T20:57:42.142Z,16.71
2022-10-05T21:00:13.291Z,16.70
2022-10-05T21:02:40.023Z,16.72
2022-10-05T21:05:07.780Z,16.68
2022-10-05T21:07:34.857Z,16.67
2022-10-05T21:10:03.401Z,16.64
2022-10-05T21:12:30.262Z,16.64
2022-10-05T21:14:56.902Z,16.63
2022-10-05T21:17:23.539Z,16.70
2022-10-05T21:19:50.324Z,16.71
2022-10-05T21:22:16.919Z,16.63
2022-10-05T21:24:43.564Z,16.61
2022-10-05T21:27:10.320Z,16.58
2022-10-05T21:29:37.198Z,16.55
2022-10-05T21:32:08.742Z,16.53
2022-10-05T21:34:35.643Z,16.48
2022-10-05T21:37:02.298Z,16.47
2022-10-05T21:39:28.913Z,16.52
2022-10-05T21:41:56.064Z,16.50
2022-10-05T21:44:22.691Z,16.47
2022-10-05T21:46:49.660Z,16.48
2022-10-05T21:49:19.489Z,16.46
2022-10-05T21:51:47.295Z,16.49
2022-10-05T21:54:21.181Z,16.46
2022-10-05T21:56:51.624Z,16.48
2022-10-05T21:59:21.807Z,16.49
2022-10-05T22:01:48.344Z,16.53
2022-10-05T22:04:15.174Z,16.53
2022-10-05T22:06:42.069Z,16.52
2022-10-05T22:09:08.887Z,16.48
2022-10-05T22:11:35.584Z,16.48
2022-10-05T22:14:02.744Z,16.39
2022-10-05T22:16:32.794Z,16.37
2022-10-05T22:19:03.758Z,16.42
2022-10-05T22:21:30.394Z,16.41
2022-10-05T22:23:57.463Z,16.36
2022-10-05T22:26:24.763Z,16.34
2022-10-05T22:28:55.632Z,16.27
2022-10-05T22:31:22.469Z,16.26
2022-10-05T22:33:49.138Z,16.22
2022-10-05T22:36:16.373Z,16.20
2022-10-05T22:38:43.058Z,16.14
2022-10-05T22:41:10.967Z,16.12
2022-10-05T22:43:38.134Z,16.04
2022-10-05T22:46:12.249Z,16.01
2022-10-05T22:48:40.172Z,16.02
2022-10-05T22:51:07.723Z,15.99
2022-10-05T22:53:35.120Z,15.95
2022-10-05T22:56:09.203Z,15.88
2022-10-05T22:58:38.332Z,15.87
2022-10-05T23:01:07.504Z,15.84
2022-10-05T23:03:34.639Z,15.78
2022-10-05T23:06:21.574Z,15.72
2022-10-05T23:08:48.277Z,15.69
2022-10-05T23:11:18.440Z,15.68
2022-10-05T23:13:45.137Z,15.63
2022-10-05T23:16:14.226Z,15.63
2022-10-05T23:18:42.058Z,15.56
2022-10-05T23:21:10.253Z,15.56
2022-10-05T23:23:38.331Z,15.55
2022-10-05T23:26:06.424Z,15.48
2022-10-05T23:28:33.762Z,15.44
2022-10-05T23:31:05.435Z,15.36
2022-10-05T23:33:32.623Z,15.36
2022-10-05T23:36:01.194Z,15.36
2022-10-05T23:38:29.075Z,15.34
2022-10-05T23:40:58.653Z,15.40
2022-10-05T23:43:26.417Z,15.36
2022-10-05T23:45:53.489Z,15.31
2022-10-05T23:48:20.272Z,15.40
2022-10-05T23:50:47.705Z,15.39
2022-10-05T23:53:15.317Z,15.41
2022-10-05T23:55:42.121Z,15.41
2022-10-05T23:58:09.466Z,15.39
